Time;durP1;ratioP1;P1;durP2;ratioP2;P2;SDS_P1;SDS_P2;PMS_P1;PMS_P2;Temp;Humidity;BMP_temperature;BMP_pressure;BME280_temperature;BME280_humidity;BME280_pressure;Samples;Min_cycle;Max_cycle;Signal;HPM_P1;HPM_P2
2022/12/06 00:00:36;;;;;;;12.38;7.68;;;2.80;98.00;;;;;;5056061;28;20314;-68
2022/12/06 00:03:02;;;;;;;11.38;6.57;;;2.80;98.00;;;;;;5055045;28;20367;-67
2022/12/06 00:05:29;;;;;;;13.95;8.55;;;2.80;98.00;;;;;;5050963;28;20068;-67
2022/12/06 00:07:55;;;;;;;13.23;7.68;;;2.80;98.00;;;;;;5046323;28;20029;-67
2022/12/06 00:10:20;;;;;;;10.40;7.10;;;2.70;98.00;;;;;;5056897;28;20036;-68
2022/12/06 00:12:46;;;;;;;11.13;6.82;;;2.70;98.00;;;;;;5047226;28;20027;-67
2022/12/06 00:15:12;;;;;;;11.27;6.43;;;2.70;98.00;;;;;;5053525;28;20024;-67
2022/12/06 00:17:40;;;;;;;9.85;6.15;;;2.80;98.00;;;;;;5057851;28;20075;-67
2022/12/06 00:20:06;;;;;;;12.57;6.47;;;2.70;98.00;;;;;;5048205;28;20036;-67
2022/12/06 00:22:32;;;;;;;9.95;6.53;;;2.80;98.00;;;;;;5055042;28;20047;-67
2022/12/06 00:24:57;;;;;;;11.68;7.00;;;2.70;98.00;;;;;;5037890;28;20053;-67
2022/12/06 00:27:23;;;;;;;50.75;29.05;;;2.70;98.00;;;;;;5049174;28;20118;-67
2022/12/06 00:29:49;;;;;;;9.02;5.97;;;2.60;98.00;;;;;;5053308;28;20029;-67
2022/12/06 00:32:14;;;;;;;10.32;5.95;;;2.70;98.00;;;;;;5046736;28;20048;-67
2022/12/06 00:34:40;;;;;;;11.40;7.32;;;2.70;98.00;;;;;;5057993;28;20017;-67
2022/12/06 00:37:05;;;;;;;13.10;7.32;;;2.60;98.00;;;;;;5050383;28;20029;-67
2022/12/06 00:39:31;;;;;;;17.58;10.80;;;2.60;98.00;;;;;;5048598;28;20036;-67
2022/12/06 00:41:57;;;;;;;12.55;7.60;;;2.50;98.00;;;;;;5052041;28;20106;-67
2022/12/06 00:44:22;;;;;;;13.98;8.27;;;2.60;98.00;;;;;;5049862;28;20029;-67
2022/12/06 00:46:48;;;;;;;13.00;7.97;;;2.60;98.00;;;;;;5047048;28;20043;-67
2022/12/06 00:49:13;;;;;;;11.23;7.18;;;2.50;98.00;;;;;;5051774;28;20113;-67
2022/12/06 00:51:45;;;;;;;10.82;6.50;;;2.40;98.00;;;;;;5041528;28;20402;-67
2022/12/06 00:54:14;;;;;;;11.25;6.47;;;2.50;98.00;;;;;;5057576;28;20027;-67
2022/12/06 00:56:39;;;;;;;10.02;6.28;;;2.40;98.00;;;;;;5051673;28;20021;-67
2022/12/06 00:59:05;;;;;;;9.30;6.00;;;2.30;98.00;;;;;;5055793;28;20040;-67
2022/12/06 01:01:34;;;;;;;8.65;5.13;;;2.20;98.00;;;;;;5048476;28;20087;-67
2022/12/06 01:04:05;;;;;;;7.93;5.25;;;2.20;98.00;;;;;;5052409;28;20063;-67
2022/12/06 01:06:33;;;;;;;8.07;5.03;;;2.10;98.00;;;;;;5051534;28;20083;-67
2022/12/06 01:09:01;;;;;;;8.18;5.28;;;2.10;98.00;;;;;;5057103;28;20024;-67
2022/12/06 01:11:27;;;;;;;9.32;5.15;;;2.00;98.00;;;;;;5051931;28;20025;-67
2022/12/06 01:13:53;;;;;;;8.27;4.82;;;1.90;98.00;;;;;;5055066;28;20029;-67
2022/12/06 01:16:21;;;;;;;7.70;4.85;;;1.70;98.00;;;;;;5045972;28;20028;-67
2022/12/06 01:18:51;;;;;;;6.40;4.45;;;1.60;98.00;;;;;;5053749;28;20040;-67
2022/12/06 01:21:18;;;;;;;8.30;5.05;;;1.50;98.00;;;;;;5051755;28;20036;-67
2022/12/06 01:23:45;;;;;;;9.40;5.03;;;1.30;98.00;;;;;;5056850;28;20033;-66
2022/12/06 01:26:17;;;;;;;7.75;4.80;;;1.10;98.00;;;;;;5054640;28;20052;-67
2022/12/06 01:28:43;;;;;;;7.28;4.50;;;1.20;98.00;;;;;;5050851;28;20037;-67
2022/12/06 01:31:09;;;;;;;7.63;4.60;;;1.10;98.00;;;;;;5050588;28;20299;-67
2022/12/06 01:33:35;;;;;;;7.28;5.18;;;0.90;98.00;;;;;;5054438;28;20020;-67
2022/12/06 01:36:00;;;;;;;8.32;4.43;;;0.70;98.00;;;;;;5054385;28;20017;-67
2022/12/06 01:38:26;;;;;;;8.93;5.43;;;0.50;98.00;;;;;;5056566;28;20036;-67
2022/12/06 01:40:51;;;;;;;8.10;5.15;;;0.30;97.20;;;;;;5052374;28;20441;-67
2022/12/06 01:43:33;;;;;;;8.40;4.80;;;0.10;96.50;;;;;;5048917;28;20446;-67
2022/12/06 01:46:08;;;;;;;8.52;5.55;;;0.00;95.30;;;;;;5052272;28;20027;-67
2022/12/06 01:48:36;;;;;;;7.93;4.85;;;-0.10;95.30;;;;;;5055038;28;20031;-67
2022/12/06 01:51:04;;;;;;;6.85;4.30;;;-0.20;94.40;;;;;;5045065;28;20100;-67
2022/12/06 01:53:31;;;;;;;8.48;5.15;;;-0.20;94.30;;;;;;5049433;28;20314;-67
2022/12/06 01:55:57;;;;;;;7.60;4.95;;;-0.20;93.60;;;;;;5052650;28;20475;-67
2022/12/06 01:58:31;;;;;;;8.30;4.68;;;-0.10;93.20;;;;;;5051922;28;20036;-67
2022/12/06 02:00:56;;;;;;;8.27;5.20;;;-0.10;94.40;;;;;;5046167;28;20052;-67
2022/12/06 02:03:27;;;;;;;8.60;5.00;;;-0.10;93.90;;;;;;5056113;28;20059;-67
2022/12/06 02:05:55;;;;;;;8.38;5.28;;;0.00;93.70;;;;;;5044648;28;20029;-67
2022/12/06 02:08:21;;;;;;;9.15;5.55;;;-0.10;94.60;;;;;;5049771;28;20414;-67
2022/12/06 02:10:47;;;;;;;8.75;5.60;;;-0.20;92.80;;;;;;5053925;28;20127;-67
2022/12/06 02:13:13;;;;;;;7.50;4.95;;;-0.10;92.50;;;;;;5054479;28;20052;-67
2022/12/06 02:16:04;;;;;;;8.60;5.57;;;0.00;93.00;;;;;;5042797;28;20025;-67
2022/12/06 02:18:42;;;;;;;8.90;5.07;;;-0.10;93.80;;;;;;5050432;28;20029;-67
2022/12/06 02:21:17;;;;;;;8.70;4.60;;;-0.10;93.90;;;;;;5045600;28;20029;-67
2022/12/06 02:24:20;;;;;;;6.93;4.35;;;-0.10;93.80;;;;;;5054662;28;20374;-67
2022/12/06 02:27:01;;;;;;;6.50;4.15;;;-0.20;94.60;;;;;;5022154;28;20337;-67
2022/12/06 02:29:47;;;;;;;6.95;4.20;;;-0.30;93.60;;;;;;5063719;28;20040;-67
2022/12/06 02:32:42;;;;;;;7.57;4.63;;;-0.40;93.90;;;;;;5053108;28;20483;-67
2022/12/06 02:35:39;;;;;;;7.05;4.13;;;-0.40;92.60;;;;;;5030593;28;20381;-67
2022/12/06 02:38:37;;;;;;;8.45;4.72;;;-0.30;92.00;;;;;;5037010;28;20036;-66
2022/12/06 02:41:13;;;;;;;8.23;4.18;;;-0.20;91.80;;;;;;5045096;28;20029;-66
2022/12/06 02:43:49;;;;;;;7.05;4.28;;;-0.10;92.70;;;;;;5051048;28;20025;-66
2022/12/06 02:46:21;;;;;;;5.65;3.55;;;0.00;93.60;;;;;;5051549;28;20102;-68
2022/12/06 02:48:52;;;;;;;6.18;4.03;;;-0.10;94.00;;;;;;5051679;28;20029;-67
2022/12/06 02:51:19;;;;;;;6.15;3.58;;;-0.10;94.60;;;;;;5042235;28;20021;-67
2022/12/06 02:53:50;;;;;;;6.43;4.15;;;-0.10;94.70;;;;;;5050713;28;20127;-66
2022/12/06 02:56:17;;;;;;;6.07;4.03;;;-0.20;95.40;;;;;;5047645;28;20049;-67
2022/12/06 02:58:43;;;;;;;5.88;3.42;;;-0.30;94.40;;;;;;5052375;28;20365;-67
2022/12/06 03:01:17;;;;;;;5.13;3.13;;;-0.40;92.80;;;;;;5051973;28;20029;-67
2022/12/06 03:04:30;;;;;;;6.78;3.72;;;-0.30;93.50;;;;;;5054179;28;20036;-67
2022/12/06 03:07:14;;;;;;;7.30;4.55;;;-0.40;93.60;;;;;;5029733;28;20454;-67
2022/12/06 03:10:07;;;;;;;7.10;4.47;;;-0.40;92.30;;;;;;5052937;28;20050;-67
2022/12/06 03:13:05;;;;;;;6.75;3.00;;;-0.40;92.20;;;;;;5054133;28;20406;-67
2022/12/06 03:15:32;;;;;;;5.65;3.42;;;-0.40;91.40;;;;;;5049342;28;20460;-67
2022/12/06 03:18:10;;;;;;;5.60;3.35;;;-0.30;92.10;;;;;;5058539;28;20064;-67
2022/12/06 03:20:43;;;;;;;4.85;3.05;;;-0.30;92.90;;;;;;5041123;28;20446;-67
2022/12/06 03:23:13;;;;;;;5.03;2.95;;;-0.30;93.60;;;;;;5049834;28;20449;-67
2022/12/06 03:25:40;;;;;;;5.28;3.20;;;-0.30;92.90;;;;;;5042891;28;20040;-67
2022/12/06 03:28:08;;;;;;;5.35;2.80;;;-0.30;93.80;;;;;;5056333;28;20101;-67
2022/12/06 03:30:34;;;;;;;5.28;3.20;;;-0.30;93.20;;;;;;5052807;28;20104;-67
2022/12/06 03:33:01;;;;;;;6.10;3.78;;;-0.30;93.10;;;;;;5059152;28;20028;-67
2022/12/06 03:35:32;;;;;;;6.55;3.58;;;-0.30;93.80;;;;;;5056271;28;20055;-66
2022/12/06 03:38:08;;;;;;;6.00;3.53;;;-0.30;93.10;;;;;;5058882;28;20025;-67
2022/12/06 03:40:38;;;;;;;6.10;3.80;;;-0.30;92.90;;;;;;5055369;28;20021;-67
2022/12/06 03:43:04;;;;;;;6.07;3.83;;;-0.20;93.10;;;;;;5056167;28;20124;-67
2022/12/06 03:46:13;;;;;;;5.63;3.40;;;-0.10;93.50;;;;;;5057905;28;20044;-67
2022/12/06 03:48:58;;;;;;;5.65;3.20;;;0.00;94.30;;;;;;5048777;28;20025;-67
2022/12/06 03:51:28;;;;;;;6.45;3.08;;;0.10;95.20;;;;;;5055983;28;20025;-67
2022/12/06 03:53:58;;;;;;;6.22;3.50;;;0.20;96.30;;;;;;5057721;28;20032;-67
2022/12/06 03:56:25;;;;;;;4.88;2.92;;;0.30;97.10;;;;;;5058541;28;20037;-67
2022/12/06 03:58:50;;;;;;;4.78;2.80;;;0.30;97.40;;;;;;5056892;28;20029;-67
2022/12/06 04:01:16;;;;;;;4.40;2.67;;;0.30;97.40;;;;;;5057898;28;20338;-67
2022/12/06 04:03:42;;;;;;;5.15;2.90;;;0.30;97.00;;;;;;5047644;28;20029;-67
2022/12/06 04:06:12;;;;;;;16.90;10.10;;;0.30;96.60;;;;;;5057437;28;20024;-67
2022/12/06 04:08:37;;;;;;;6.72;4.00;;;0.30;96.40;;;;;;5058157;28;20067;-67
2022/12/06 04:11:04;;;;;;;6.22;3.88;;;0.30;96.50;;;;;;5057583;28;20052;-67
2022/12/06 04:13:30;;;;;;;5.85;3.45;;;0.30;96.40;;;;;;5056738;28;20359;-67
2022/12/06 04:15:58;;;;;;;5.85;3.90;;;0.40;96.80;;;;;;5049651;28;20315;-67
2022/12/06 04:18:24;;;;;;;5.43;3.20;;;0.40;97.30;;;;;;5053239;28;20035;-67
2022/12/06 04:23:49;;;;;;;5.30;3.03;;;0.40;97.10;;;;;;5056323;28;20080;-67
2022/12/06 04:26:20;;;;;;;4.50;2.90;;;0.50;96.60;;;;;;5056071;28;20319;-67
2022/12/06 04:39:50;;;;;;;5.95;3.50;;;0.50;96.70;;;;;;5043321;28;20043;-67
2022/12/06 04:45:06;;;;;;;5.50;3.28;;;0.40;96.00;;;;;;5049785;28;20155;-67
2022/12/06 04:47:32;;;;;;;5.95;3.50;;;0.40;95.90;;;;;;5055493;28;20330;-67
2022/12/06 04:50:01;;;;;;;6.13;3.47;;;0.40;95.80;;;;;;5054579;28;20017;-67
2022/12/06 04:52:26;;;;;;;5.60;3.50;;;0.40;95.80;;;;;;5057762;28;20032;-67
2022/12/06 04:54:52;;;;;;;6.88;3.90;;;0.50;95.90;;;;;;5050189;28;20029;-67
2022/12/06 04:57:17;;;;;;;7.13;4.30;;;0.50;95.90;;;;;;5055570;28;20033;-67
2022/12/06 04:59:45;;;;;;;6.28;3.95;;;0.50;95.80;;;;;;5050182;28;20040;-67
2022/12/06 05:02:13;;;;;;;5.93;3.38;;;0.60;95.40;;;;;;5049574;28;20348;-67
2022/12/06 05:04:39;;;;;;;6.15;3.75;;;0.60;95.50;;;;;;5055878;28;20099;-67
2022/12/06 05:07:05;;;;;;;6.05;3.63;;;0.60;95.70;;;;;;5056039;28;20033;-67
2022/12/06 05:09:33;;;;;;;5.72;3.50;;;0.60;95.80;;;;;;5056384;28;20304;-67
2022/12/06 05:11:59;;;;;;;5.75;3.22;;;0.70;95.80;;;;;;5052048;28;20056;-67
2022/12/06 05:14:25;;;;;;;5.15;3.05;;;0.70;95.70;;;;;;5042057;28;20056;-67
2022/12/06 05:16:50;;;;;;;4.82;2.63;;;0.80;95.90;;;;;;5037547;28;20041;-67
2022/12/06 05:19:16;;;;;;;4.55;2.72;;;0.80;96.20;;;;;;5049404;28;20333;-67
2022/12/06 05:21:41;;;;;;;5.65;3.20;;;0.80;96.40;;;;;;5054821;28;20321;-67
2022/12/06 05:24:07;;;;;;;5.35;3.25;;;0.90;97.50;;;;;;5050445;28;20051;-68
2022/12/06 05:26:36;;;;;;;5.07;2.92;;;1.00;98.00;;;;;;5049270;28;20391;-66
2022/12/06 05:29:01;;;;;;;5.57;3.08;;;1.10;98.00;;;;;;5048610;28;20029;-66
2022/12/06 05:31:27;;;;;;;4.80;2.72;;;1.10;98.00;;;;;;5050559;28;20403;-66
2022/12/06 05:33:52;;;;;;;5.65;3.20;;;1.10;98.00;;;;;;5056792;28;20036;-68
2022/12/06 05:36:24;;;;;;;3.65;2.30;;;1.20;98.00;;;;;;5057947;28;20088;-66
2022/12/06 05:38:51;;;;;;;4.70;2.67;;;1.30;98.00;;;;;;5052455;28;20041;-68
2022/12/06 05:41:21;;;;;;;3.92;2.22;;;1.30;98.00;;;;;;5054992;28;20029;-67
2022/12/06 05:43:47;;;;;;;4.63;2.50;;;1.40;98.00;;;;;;5054658;28;20052;-68
2022/12/06 05:46:12;;;;;;;3.90;2.17;;;1.50;98.00;;;;;;5055334;28;20480;-67
2022/12/06 05:48:38;;;;;;;3.60;2.10;;;1.60;98.00;;;;;;5051240;28;20021;-67
2022/12/06 05:51:04;;;;;;;4.60;2.35;;;1.70;98.00;;;;;;5035615;28;20150;-67
2022/12/06 05:53:30;;;;;;;4.13;2.10;;;1.70;98.00;;;;;;5054946;28;20019;-67
2022/12/06 05:55:56;;;;;;;4.20;2.50;;;1.70;98.00;;;;;;5056872;28;20047;-67
2022/12/06 05:58:22;;;;;;;4.45;2.53;;;1.70;98.00;;;;;;5044013;28;20045;-67
2022/12/06 06:00:50;;;;;;;4.40;2.70;;;1.70;98.00;;;;;;5041195;28;20083;-67
2022/12/06 06:03:16;;;;;;;5.50;2.80;;;1.70;98.00;;;;;;5052112;28;20086;-67
2022/12/06 06:05:47;;;;;;;5.18;2.67;;;1.70;98.00;;;;;;5055287;28;20106;-67
2022/12/06 06:08:13;;;;;;;4.28;2.33;;;1.60;98.00;;;;;;5052394;28;20052;-67
2022/12/06 06:10:38;;;;;;;5.03;2.80;;;1.60;98.00;;;;;;5056482;28;20016;-67
2022/12/06 06:13:04;;;;;;;3.90;2.40;;;1.60;98.00;;;;;;5053443;28;20108;-67
2022/12/06 06:15:30;;;;;;;5.20;3.10;;;1.70;98.00;;;;;;5055261;28;20432;-67
2022/12/06 06:17:58;;;;;;;4.13;2.08;;;1.70;98.00;;;;;;5056604;28;20094;-67
2022/12/06 06:20:24;;;;;;;3.55;2.03;;;1.70;98.00;;;;;;5053587;28;20029;-67
2022/12/06 06:22:49;;;;;;;4.55;2.15;;;1.80;98.00;;;;;;5054308;28;20028;-67
2022/12/06 06:25:15;;;;;;;9.73;5.13;;;1.90;98.00;;;;;;5053286;28;20057;-67
2022/12/06 06:27:40;;;;;;;10.40;6.40;;;1.90;98.00;;;;;;5046005;28;20104;-67
2022/12/06 06:30:09;;;;;;;12.35;8.63;;;1.90;98.00;;;;;;5051693;28;20025;-67
2022/12/06 06:32:38;;;;;;;14.38;10.35;;;1.90;98.00;;;;;;5053542;28;20031;-67
2022/12/06 06:35:07;;;;;;;13.05;9.27;;;1.80;98.00;;;;;;5054890;28;20414;-67
2022/12/06 06:37:33;;;;;;;20.27;11.52;;;1.70;98.00;;;;;;5044797;28;20176;-67
2022/12/06 06:39:59;;;;;;;8.75;5.25;;;1.70;98.00;;;;;;5052455;28;20104;-67
2022/12/06 06:42:25;;;;;;;5.40;3.28;;;1.60;98.00;;;;;;5051685;28;20040;-67
2022/12/06 06:44:53;;;;;;;5.45;3.17;;;1.50;98.00;;;;;;5052517;28;20021;-67
2022/12/06 06:47:19;;;;;;;7.35;4.43;;;1.40;98.00;;;;;;5048360;28;20044;-67
2022/12/06 06:49:44;;;;;;;7.07;4.82;;;1.40;98.00;;;;;;5046700;28;20028;-67
2022/12/06 06:52:10;;;;;;;25.50;16.45;;;1.40;98.00;;;;;;5055340;28;20115;-67
2022/12/06 06:54:36;;;;;;;17.02;11.73;;;1.40;98.00;;;;;;5043436;28;20064;-67
2022/12/06 06:57:02;;;;;;;13.23;9.13;;;1.40;98.00;;;;;;5055229;28;20371;-67
2022/12/06 06:59:28;;;;;;;32.17;14.60;;;1.40;98.00;;;;;;5054124;28;20100;-67
2022/12/06 07:01:53;;;;;;;36.05;14.95;;;1.40;98.00;;;;;;5060623;28;20310;-67
2022/12/06 07:04:19;;;;;;;42.28;17.48;;;1.40;98.00;;;;;;5053453;28;20060;-67
2022/12/06 07:06:44;;;;;;;69.00;43.20;;;1.40;98.00;;;;;;5054288;28;20037;-67
2022/12/06 07:09:10;;;;;;;32.80;16.92;;;1.40;98.00;;;;;;5048045;28;20090;-67
2022/12/06 07:11:36;;;;;;;16.88;10.65;;;1.40;98.00;;;;;;5050857;28;20021;-67
2022/12/06 07:14:02;;;;;;;25.10;13.38;;;1.40;98.00;;;;;;5044702;28;20018;-67
2022/12/06 07:16:28;;;;;;;14.38;8.45;;;1.50;98.00;;;;;;5049261;28;20029;-67
2022/12/06 07:18:53;;;;;;;12.05;7.72;;;1.50;98.00;;;;;;5055123;28;20036;-67
2022/12/06 07:21:22;;;;;;;9.93;6.13;;;1.50;98.00;;;;;;5048081;28;20033;-67
2022/12/06 07:23:48;;;;;;;10.85;5.90;;;1.50;98.00;;;;;;5055338;28;20020;-67
2022/12/06 07:26:19;;;;;;;18.77;10.52;;;1.50;98.00;;;;;;5054079;28;20344;-67
2022/12/06 07:28:47;;;;;;;30.40;17.60;;;1.50;98.00;;;;;;5048379;28;20087;-67
2022/12/06 07:31:27;;;;;;;27.48;16.33;;;1.50;98.00;;;;;;5055528;28;20036;-67
2022/12/06 07:33:58;;;;;;;24.10;11.98;;;1.50;98.00;;;;;;5051760;28;20025;-67
2022/12/06 07:36:25;;;;;;;16.75;10.30;;;1.50;98.00;;;;;;5047633;28;20029;-67
2022/12/06 07:38:54;;;;;;;11.82;7.47;;;1.50;98.00;;;;;;5053365;28;20577;-67
2022/12/06 07:46:57;;;;;;;14.63;8.93;;;1.40;98.00;;;;;;5055267;28;20055;-67
2022/12/06 07:49:23;;;;;;;14.85;9.77;;;1.40;98.00;;;;;;5042446;28;20067;-67
2022/12/06 07:51:48;;;;;;;13.18;9.20;;;1.50;98.00;;;;;;5053055;28;20378;-67
2022/12/06 07:54:21;;;;;;;10.10;6.80;;;1.50;98.00;;;;;;5036134;28;20448;-67
2022/12/06 07:56:47;;;;;;;11.75;7.93;;;1.40;98.00;;;;;;5040107;28;20022;-67
2022/12/06 07:59:13;;;;;;;11.48;8.23;;;1.60;98.00;;;;;;5056538;28;20095;-67
2022/12/06 08:01:39;;;;;;;11.85;7.55;;;1.60;98.00;;;;;;5051808;28;20037;-67
2022/12/06 08:04:05;;;;;;;21.48;12.40;;;1.60;98.00;;;;;;5055370;28;20040;-67
2022/12/06 08:06:34;;;;;;;34.03;20.10;;;1.60;98.00;;;;;;5058696;28;20025;-67
2022/12/06 08:09:00;;;;;;;22.52;13.82;;;1.70;98.00;;;;;;5056491;28;20064;-67
2022/12/06 08:11:27;;;;;;;14.95;9.20;;;1.70;98.00;;;;;;5057077;28;20060;-67
2022/12/06 08:14:02;;;;;;;13.73;8.68;;;1.70;98.00;;;;;;5046611;28;20371;-68
2022/12/06 08:16:28;;;;;;;16.88;9.65;;;1.80;98.00;;;;;;5038759;28;20024;-67
2022/12/06 08:18:54;;;;;;;14.80;10.07;;;1.90;98.00;;;;;;5071371;28;20096;-67
2022/12/06 08:21:29;;;;;;;21.55;13.27;;;1.90;98.00;;;;;;5038584;28;20033;-68
2022/12/06 08:23:55;;;;;;;25.38;15.10;;;2.00;98.00;;;;;;5038580;28;20029;-67
2022/12/06 08:26:21;;;;;;;22.30;13.82;;;2.10;98.00;;;;;;5038458;28;20196;-67
2022/12/06 08:28:47;;;;;;;20.58;13.13;;;2.10;98.00;;;;;;5037310;28;20057;-69
2022/12/06 08:31:19;;;;;;;22.92;15.27;;;2.10;98.00;;;;;;5038594;28;20071;-69
2022/12/06 08:33:45;;;;;;;17.77;12.35;;;2.10;98.00;;;;;;5037135;28;20025;-68
2022/12/06 08:36:13;;;;;;;19.20;12.38;;;2.20;98.00;;;;;;5038627;28;20064;-68
2022/12/06 08:38:42;;;;;;;17.77;11.88;;;2.20;98.00;;;;;;5038293;28;20131;-68
2022/12/06 08:43:57;;;;;;;17.15;11.32;;;2.30;98.00;;;;;;5037122;28;20075;-68
2022/12/06 08:46:25;;;;;;;15.40;10.65;;;2.30;98.00;;;;;;5038258;28;20029;-68
2022/12/06 08:48:51;;;;;;;16.92;10.95;;;2.30;98.00;;;;;;5038125;28;20408;-68
2022/12/06 08:51:17;;;;;;;37.97;30.65;;;2.40;98.00;;;;;;5038165;28;20108;-68
2022/12/06 08:53:42;;;;;;;20.05;14.77;;;2.40;98.00;;;;;;5038015;28;20107;-68
2022/12/06 08:56:08;;;;;;;13.85;9.68;;;2.50;98.00;;;;;;5037926;28;20029;-68
2022/12/06 08:58:34;;;;;;;16.08;9.82;;;2.50;98.00;;;;;;5036694;28;20025;-68
2022/12/06 09:00:59;;;;;;;14.15;9.18;;;2.60;98.00;;;;;;5037794;28;20030;-67
2022/12/06 09:03:25;;;;;;;15.40;10.35;;;2.60;98.00;;;;;;5037793;28;20061;-67
2022/12/06 09:05:51;;;;;;;19.05;13.25;;;2.70;98.00;;;;;;5036924;28;20051;-68
2022/12/06 09:08:19;;;;;;;14.68;8.45;;;2.80;98.00;;;;;;5037746;28;20406;-68
2022/12/06 09:10:44;;;;;;;13.68;9.27;;;2.80;98.00;;;;;;5037722;28;20036;-68
2022/12/06 09:13:10;;;;;;;13.00;8.10;;;2.90;98.00;;;;;;5036457;28;20030;-68
2022/12/06 09:15:40;;;;;;;13.60;8.68;;;2.90;98.00;;;;;;5037692;28;20118;-67
2022/12/06 09:18:05;;;;;;;10.07;6.68;;;3.00;98.00;;;;;;5037613;28;20475;-68
2022/12/06 09:20:31;;;;;;;16.70;10.30;;;3.10;98.00;;;;;;5037559;28;20029;-68
2022/12/06 09:22:56;;;;;;;10.63;7.22;;;3.20;98.00;;;;;;5036563;28;20039;-68
2022/12/06 09:25:22;;;;;;;9.73;6.40;;;3.20;98.00;;;;;;5037155;28;20099;-67
2022/12/06 09:27:48;;;;;;;10.10;6.55;;;3.30;98.00;;;;;;5037396;28;20035;-67
2022/12/06 09:30:14;;;;;;;10.45;6.60;;;3.30;98.00;;;;;;5036080;28;20024;-67
2022/12/06 09:32:39;;;;;;;10.50;6.65;;;3.50;98.00;;;;;;5037396;28;20044;-68
2022/12/06 09:35:05;;;;;;;9.65;6.32;;;3.50;98.00;;;;;;5037365;28;20026;-68
2022/12/06 09:37:32;;;;;;;11.77;6.18;;;3.50;98.00;;;;;;5037184;28;20075;-68
2022/12/06 09:40:01;;;;;;;35.10;15.18;;;3.60;98.00;;;;;;5037187;28;20018;-67
2022/12/06 09:42:55;;;;;;;14.45;7.93;;;3.70;98.00;;;;;;5037126;28;20030;-68
2022/12/06 09:45:42;;;;;;;10.57;6.25;;;3.90;98.00;;;;;;5035863;28;20029;-67
2022/12/06 09:48:23;;;;;;;10.20;6.95;;;4.00;98.00;;;;;;5036890;28;20048;-67
2022/12/06 09:51:06;;;;;;;18.50;11.52;;;4.00;98.00;;;;;;5036946;28;20029;-67
2022/12/06 09:54:08;;;;;;;12.43;9.57;;;3.90;98.00;;;;;;5037067;28;20028;-67
2022/12/06 09:56:47;;;;;;;10.77;7.45;;;3.90;98.00;;;;;;5037001;28;20025;-68
2022/12/06 09:59:27;;;;;;;10.30;6.47;;;3.80;98.00;;;;;;5035477;28;20029;-67
2022/12/06 10:02:22;;;;;;;11.35;7.20;;;3.80;98.00;;;;;;5036796;28;20464;-67
2022/12/06 10:05:11;;;;;;;13.43;9.20;;;3.90;98.00;;;;;;5036738;28;20042;-68
2022/12/06 10:08:01;;;;;;;14.73;10.23;;;3.90;98.00;;;;;;5036532;28;20095;-67
2022/12/06 10:10:56;;;;;;;23.45;15.38;;;3.80;98.00;;;;;;5036643;28;20017;-67
2022/12/06 10:13:38;;;;;;;16.42;10.05;;;3.90;98.00;;;;;;5035382;28;20248;-68
2022/12/06 10:16:21;;;;;;;19.33;13.65;;;3.90;98.00;;;;;;5036239;28;20025;-67
2022/12/06 10:19:05;;;;;;;14.93;10.23;;;3.80;98.00;;;;;;5036477;28;20071;-67
2022/12/06 10:21:52;;;;;;;14.85;10.00;;;3.80;98.00;;;;;;5036499;28;20079;-68
2022/12/06 10:24:52;;;;;;;11.25;7.72;;;3.80;98.00;;;;;;5036187;28;20056;-67
2022/12/06 10:27:33;;;;;;;10.38;6.57;;;3.90;98.00;;;;;;5027847;28;20460;-68
2022/12/06 10:30:07;;;;;;;14.13;10.65;;;3.90;98.00;;;;;;5035083;28;20057;-68
2022/12/06 10:32:50;;;;;;;16.02;10.82;;;3.80;98.00;;;;;;5036045;28;20022;-67
2022/12/06 10:35:17;;;;;;;15.40;11.32;;;3.80;98.00;;;;;;5036199;28;20053;-67
2022/12/06 10:37:57;;;;;;;13.65;8.90;;;3.70;98.00;;;;;;5036268;28;20026;-67
2022/12/06 10:40:27;;;;;;;13.23;8.68;;;3.80;98.00;;;;;;5036153;28;20029;-67
2022/12/06 10:43:11;;;;;;;13.02;8.48;;;3.70;98.00;;;;;;5035973;28;20081;-68
2022/12/06 10:48:50;;;;;;;12.35;8.65;;;4.10;98.00;;;;;;5036285;28;20087;-68
2022/12/06 10:51:22;;;;;;;16.70;10.50;;;4.30;98.00;;;;;;5065082;28;20025;-67
2022/12/06 10:53:55;;;;;;;18.50;10.57;;;4.60;98.00;;;;;;5034883;28;20109;-67
2022/12/06 10:56:31;;;;;;;12.68;8.30;;;4.50;98.00;;;;;;5035904;28;20032;-68
2022/12/06 10:59:27;;;;;;;14.00;9.43;;;4.50;98.00;;;;;;5034871;28;20306;-67
2022/12/06 11:01:57;;;;;;;18.55;9.02;;;4.30;98.00;;;;;;5035906;28;20030;-67
2022/12/06 11:04:32;;;;;;;13.20;8.70;;;4.30;98.00;;;;;;5035778;28;20113;-68
2022/12/06 11:07:07;;;;;;;12.27;8.13;;;4.10;98.00;;;;;;5035843;28;20025;-67
2022/12/06 11:09:38;;;;;;;12.13;8.20;;;4.10;98.00;;;;;;5035764;28;20511;-67
2022/12/06 11:12:22;;;;;;;12.43;8.23;;;4.20;98.00;;;;;;5035671;28;20025;-67
2022/12/06 11:14:53;;;;;;;12.98;8.88;;;4.30;98.00;;;;;;5034696;28;20057;-67
2022/12/06 11:17:25;;;;;;;15.90;11.30;;;4.60;98.00;;;;;;5035822;28;20030;-67
2022/12/06 11:20:06;;;;;;;12.57;8.18;;;4.60;98.00;;;;;;5035738;28;20025;-67
2022/12/06 11:22:41;;;;;;;13.65;8.20;;;4.60;97.80;;;;;;5035647;28;20038;-68
2022/12/06 11:25:34;;;;;;;13.48;8.45;;;4.50;98.00;;;;;;5034599;28;20426;-68
2022/12/06 11:28:20;;;;;;;15.48;9.13;;;4.70;98.00;;;;;;5034684;28;20029;-68
2022/12/06 11:30:49;;;;;;;12.55;7.80;;;4.80;97.90;;;;;;5039705;28;20025;-68
2022/12/06 11:33:20;;;;;;;11.43;7.32;;;4.70;98.00;;;;;;5055971;28;20013;-68
2022/12/06 11:35:46;;;;;;;15.65;9.35;;;4.60;98.00;;;;;;5059528;28;20024;-68
2022/12/06 11:38:15;;;;;;;17.38;10.27;;;4.70;98.00;;;;;;5058536;28;20025;-68
2022/12/06 11:40:47;;;;;;;13.10;8.63;;;4.80;98.00;;;;;;5059466;28;20029;-67
2022/12/06 11:43:28;;;;;;;13.45;9.20;;;4.70;98.00;;;;;;5038394;28;20033;-67
2022/12/06 11:45:55;;;;;;;15.20;9.57;;;4.80;98.00;;;;;;5041182;28;20051;-67
2022/12/06 11:48:25;;;;;;;34.08;18.83;;;4.90;97.70;;;;;;5039638;28;20061;-67
2022/12/06 11:50:52;;;;;;;92.70;44.22;;;5.00;97.90;;;;;;5049581;28;20421;-67
2022/12/06 11:53:35;;;;;;;18.38;11.43;;;5.10;97.90;;;;;;5062354;28;20044;-67
2022/12/06 11:56:27;;;;;;;16.35;11.65;;;5.20;97.20;;;;;;5043278;28;20100;-67
2022/12/06 11:59:33;;;;;;;17.73;11.88;;;5.30;97.20;;;;;;5052408;28;20047;-67
2022/12/06 12:02:01;;;;;;;24.40;15.00;;;5.40;97.90;;;;;;5058998;28;20021;-67
2022/12/06 12:04:43;;;;;;;16.80;11.73;;;5.60;97.30;;;;;;5058928;28;20032;-67
2022/12/06 12:07:21;;;;;;;11.57;7.95;;;5.70;97.10;;;;;;5054945;28;20067;-67
2022/12/06 12:09:57;;;;;;;14.90;9.13;;;5.80;96.30;;;;;;5058514;28;20086;-68
2022/12/06 12:13:42;;;;;;;13.40;8.55;;;5.80;95.50;;;;;;5043830;28;20033;-68
2022/12/06 12:15:17;;;;;;;12.43;8.57;;;5.80;95.40;;;;;;5037362;28;20354;-68
2022/12/06 12:17:46;;;;;;;17.52;10.98;;;5.50;95.70;;;;;;5054892;28;20025;-67
2022/12/06 12:20:23;;;;;;;21.50;12.68;;;5.20;96.80;;;;;;5050025;28;20364;-67
2022/12/06 12:22:58;;;;;;;18.98;11.52;;;5.00;97.80;;;;;;5050417;28;20017;-67
2022/12/06 12:25:29;;;;;;;19.27;11.10;;;5.00;98.00;;;;;;5042263;28;20092;-67
2022/12/06 12:28:00;;;;;;;17.88;11.77;;;4.80;98.00;;;;;;5038251;28;20025;-67
2022/12/06 12:30:28;;;;;;;18.08;10.93;;;4.80;98.00;;;;;;5039248;28;20026;-67
2022/12/06 12:33:06;;;;;;;17.52;11.82;;;4.80;98.00;;;;;;5045830;28;20108;-67
2022/12/06 12:35:34;;;;;;;15.57;10.90;;;4.70;98.00;;;;;;5048115;28;20357;-67
2022/12/06 12:38:47;;;;;;;21.30;12.65;;;4.60;98.00;;;;;;5056191;28;20027;-67
2022/12/06 12:41:25;;;;;;;17.20;11.18;;;4.60;98.00;;;;;;5039603;28;21311;-67
2022/12/06 12:44:03;;;;;;;18.17;11.90;;;4.70;98.00;;;;;;5048969;28;20021;-67
2022/12/06 12:46:32;;;;;;;16.98;10.85;;;4.80;98.00;;;;;;5050152;28;20029;-67
2022/12/06 12:49:21;;;;;;;13.30;9.35;;;4.90;98.00;;;;;;5048764;28;20037;-67
2022/12/06 12:51:50;;;;;;;15.38;10.45;;;5.00;98.00;;;;;;5048702;28;20306;-67
2022/12/06 12:54:21;;;;;;;18.85;12.18;;;5.10;98.00;;;;;;5054197;28;20028;-67
2022/12/06 12:56:48;;;;;;;16.20;9.50;;;5.30;98.00;;;;;;5053754;28;20021;-67
2022/12/06 12:59:16;;;;;;;14.05;9.02;;;5.50;98.00;;;;;;5045241;28;20028;-68
2022/12/06 13:02:12;;;;;;;13.00;8.32;;;5.80;98.00;;;;;;5062128;28;20352;-68
2022/12/06 13:04:55;;;;;;;14.80;9.60;;;6.00;98.00;;;;;;5056150;28;20025;-67
2022/12/06 13:07:27;;;;;;;13.50;8.80;;;6.00;97.40;;;;;;5056306;28;20024;-67
2022/12/06 13:10:16;;;;;;;14.35;8.90;;;6.10;97.80;;;;;;5054983;28;20120;-67
2022/12/06 13:12:52;;;;;;;13.88;9.13;;;6.00;97.20;;;;;;5049797;28;20047;-67
2022/12/06 13:15:35;;;;;;;22.67;11.90;;;5.80;97.40;;;;;;5057019;28;20025;-67
2022/12/06 13:18:16;;;;;;;18.97;10.43;;;5.70;97.40;;;;;;5041751;28;20025;-67
2022/12/06 13:20:43;;;;;;;22.10;10.82;;;5.40;98.00;;;;;;5054934;28;20025;-67
2022/12/06 13:23:22;;;;;;;14.75;8.63;;;5.20;98.00;;;;;;5056076;28;20017;-67
2022/12/06 13:26:18;;;;;;;13.30;8.95;;;5.10;98.00;;;;;;5055615;28;20045;-67
2022/12/06 13:28:49;;;;;;;16.17;10.63;;;5.00;98.00;;;;;;5042549;28;20041;-67
2022/12/06 13:31:19;;;;;;;14.13;9.45;;;4.70;98.00;;;;;;5053205;28;20033;-67
2022/12/06 13:33:56;;;;;;;11.38;7.82;;;4.60;98.00;;;;;;5036225;28;20056;-67
2022/12/06 13:36:23;;;;;;;13.95;9.02;;;4.60;98.00;;;;;;5052991;28;20025;-67
2022/12/06 13:38:48;;;;;;;15.63;9.40;;;4.80;98.00;;;;;;5036187;28;20033;-67